Time;durP1;ratioP1;P1;durP2;ratioP2;P2;SDS_P1;SDS_P2;PMS_P1;PMS_P2;Temp;Humidity;BMP_temperature;BMP_pressure;BME280_temperature;BME280_humidity;BME280_pressure;Samples;Min_cycle;Max_cycle;Signal;HPM_P1;HPM_P2
2023/12/27 00:00:33;;;;;;;1902.68;999.90;;;2.30;99.90;;;;;;5047877;28;20098;-85
2023/12/27 00:02:59;;;;;;;1872.38;999.90;;;3.10;99.90;;;;;;5071004;28;20040;-85
2023/12/27 00:05:24;;;;;;;1890.82;999.90;;;2.30;99.90;;;;;;5064744;28;20145;-85
2023/12/27 00:07:50;;;;;;;1902.55;999.90;;;2.40;99.90;;;;;;5047405;28;20063;-85
2023/12/27 00:10:15;;;;;;;1827.70;999.90;;;2.30;99.90;;;;;;5050665;28;20032;-85
2023/12/27 00:12:41;;;;;;;1892.93;999.90;;;2.30;99.90;;;;;;5047873;28;20099;-85
2023/12/27 00:15:07;;;;;;;1899.40;999.90;;;3.50;99.90;;;;;;5049415;28;20547;-86
2023/12/27 00:17:33;;;;;;;1927.47;999.90;;;2.30;99.90;;;;;;5046295;28;20032;-85
2023/12/27 00:19:59;;;;;;;1936.07;999.90;;;2.30;99.90;;;;;;5050972;28;20455;-85
2023/12/27 00:22:24;;;;;;;1951.43;999.90;;;2.30;99.90;;;;;;5047026;28;20036;-85
2023/12/27 00:24:50;;;;;;;1950.53;999.90;;;3.30;99.90;;;;;;5053490;28;20048;-85
2023/12/27 00:27:16;;;;;;;1997.25;999.90;;;2.30;99.90;;;;;;5065174;28;20044;-85
2023/12/27 00:29:41;;;;;;;1902.25;999.90;;;3.20;99.90;;;;;;5053777;28;20043;-85
2023/12/27 00:32:09;;;;;;;1919.70;999.90;;;3.60;99.90;;;;;;5049630;28;20080;-85
2023/12/27 00:34:35;;;;;;;1798.20;999.90;;;2.30;99.90;;;;;;5061917;28;20075;-85
2023/12/27 00:37:03;;;;;;;1999.90;999.90;;;2.30;99.90;;;;;;5057688;28;20063;-85
2023/12/27 00:39:30;;;;;;;1999.28;999.90;;;2.80;99.90;;;;;;5061859;28;20119;-85
2023/12/27 00:41:56;;;;;;;1960.25;999.90;;;2.20;99.90;;;;;;5059804;28;20044;-85
2023/12/27 00:44:21;;;;;;;1886.82;999.90;;;2.20;99.90;;;;;;5059941;28;20078;-85
2023/12/27 00:46:47;;;;;;;1917.07;999.90;;;2.20;99.90;;;;;;5060571;28;20048;-85
2023/12/27 00:49:13;;;;;;;1939.97;999.90;;;2.10;99.90;;;;;;5060426;28;20095;-85
2023/12/27 00:51:39;;;;;;;1780.00;999.90;;;3.00;99.90;;;;;;5057815;28;20033;-85
2023/12/27 00:54:05;;;;;;;1999.90;999.90;;;2.10;99.90;;;;;;5047955;28;20037;-85
2023/12/27 00:56:30;;;;;;;1831.40;999.90;;;2.10;99.90;;;;;;5049181;28;20063;-85
2023/12/27 00:58:57;;;;;;;1854.47;999.90;;;3.20;99.90;;;;;;5049416;28;20044;-85
2023/12/27 01:01:22;;;;;;;1942.68;999.90;;;2.80;99.90;;;;;;5047441;28;20089;-85
2023/12/27 01:03:48;;;;;;;1820.30;999.90;;;3.30;99.90;;;;;;5047591;28;20071;-85
2023/12/27 01:06:14;;;;;;;1926.32;999.90;;;1.90;99.90;;;;;;5048055;28;20462;-85
2023/12/27 01:08:39;;;;;;;1917.80;999.90;;;1.90;99.90;;;;;;5061658;28;20032;-85
2023/12/27 01:11:05;;;;;;;1772.85;999.90;;;1.90;99.90;;;;;;5049624;28;20110;-85
2023/12/27 01:13:31;;;;;;;1734.80;999.90;;;2.90;99.90;;;;;;5049635;28;20036;-85
2023/12/27 01:15:59;;;;;;;1902.82;999.90;;;2.00;99.90;;;;;;5048350;28;20045;-85
2023/12/27 01:18:26;;;;;;;1861.55;999.90;;;1.80;99.90;;;;;;5045255;28;20504;-85
2023/12/27 01:20:51;;;;;;;1884.57;999.90;;;1.80;99.90;;;;;;5065002;28;20041;-86
2023/12/27 01:23:17;;;;;;;1867.47;999.90;;;1.50;99.90;;;;;;5049424;28;20044;-85
2023/12/27 01:25:43;;;;;;;1844.47;999.90;;;1.00;99.90;;;;;;5061877;28;20069;-86
2023/12/27 01:28:09;;;;;;;1814.28;999.90;;;1.60;99.90;;;;;;5063392;28;20082;-85
2023/12/27 01:30:35;;;;;;;1731.10;999.90;;;1.60;99.90;;;;;;5062992;28;20104;-85
2023/12/27 01:33:02;;;;;;;1870.60;999.90;;;1.60;99.90;;;;;;5078010;28;20124;-85
2023/12/27 01:35:28;;;;;;;1853.07;999.90;;;1.60;99.90;;;;;;5060851;28;20033;-85
2023/12/27 01:37:54;;;;;;;1724.30;999.90;;;1.50;99.90;;;;;;5062995;28;20037;-85
2023/12/27 01:40:19;;;;;;;1785.57;999.90;;;1.50;99.90;;;;;;5081939;28;20563;-85
2023/12/27 01:42:45;;;;;;;1742.35;999.90;;;2.90;99.90;;;;;;5044840;28;20040;-85
2023/12/27 01:45:11;;;;;;;1784.55;999.90;;;1.50;99.90;;;;;;5064902;28;20033;-85
2023/12/27 01:47:37;;;;;;;1746.13;999.90;;;1.50;99.90;;;;;;5047936;28;20102;-85
2023/12/27 01:50:09;;;;;;;1804.13;999.90;;;1.40;99.90;;;;;;5047776;28;20546;-85
2023/12/27 01:52:38;;;;;;;1762.90;999.90;;;1.40;99.90;;;;;;5070874;28;20037;-85
2023/12/27 01:55:05;;;;;;;1828.25;999.90;;;1.10;99.90;;;;;;5048507;28;20040;-85
2023/12/27 01:57:31;;;;;;;1827.90;999.90;;;1.40;99.90;;;;;;5062552;28;20060;-85
2023/12/27 01:59:57;;;;;;;1763.65;999.90;;;1.30;99.90;;;;;;5048784;28;20093;-85
2023/12/27 02:02:23;;;;;;;1757.25;999.90;;;1.30;99.90;;;;;;5063156;28;20059;-85
2023/12/27 02:04:48;;;;;;;1819.93;999.90;;;1.30;99.90;;;;;;5061615;28;20045;-85
2023/12/27 02:07:15;;;;;;;1733.55;999.90;;;1.30;99.90;;;;;;5061304;28;20425;-85
2023/12/27 02:09:41;;;;;;;1837.57;999.90;;;2.60;99.90;;;;;;5062805;28;20041;-85
2023/12/27 02:12:07;;;;;;;1823.75;999.90;;;1.20;99.90;;;;;;5042428;28;20053;-85
2023/12/27 02:14:33;;;;;;;1752.50;999.90;;;1.30;99.90;;;;;;5064433;28;20123;-85
2023/12/27 02:17:00;;;;;;;1798.18;999.90;;;1.20;99.90;;;;;;5046561;28;20063;-85
2023/12/27 02:19:27;;;;;;;1816.38;999.90;;;1.50;99.90;;;;;;5048213;28;20047;-85
2023/12/27 02:21:54;;;;;;;1781.50;999.90;;;2.10;99.90;;;;;;5043047;28;20037;-85
2023/12/27 02:24:22;;;;;;;1715.38;999.90;;;1.10;99.90;;;;;;5064380;28;20040;-86
2023/12/27 02:26:47;;;;;;;1727.70;999.90;;;1.10;99.90;;;;;;5045304;28;20049;-85
2023/12/27 02:29:14;;;;;;;1884.35;999.90;;;1.10;99.90;;;;;;5075442;28;20036;-85
2023/12/27 02:31:40;;;;;;;1893.60;999.90;;;1.20;99.90;;;;;;5044644;28;20036;-85
2023/12/27 02:34:06;;;;;;;1916.07;999.90;;;1.10;99.90;;;;;;5063626;28;20040;-85
2023/12/27 02:36:31;;;;;;;1833.82;999.90;;;1.10;99.90;;;;;;5061262;28;20043;-85
2023/12/27 02:38:57;;;;;;;1823.07;999.90;;;1.00;99.90;;;;;;5049211;28;20033;-85
2023/12/27 02:41:22;;;;;;;1895.50;999.90;;;1.00;99.90;;;;;;5073875;28;20037;-85
2023/12/27 02:43:48;;;;;;;1853.70;999.90;;;1.00;99.90;;;;;;5057251;28;20051;-85
2023/12/27 02:46:14;;;;;;;1795.93;999.90;;;1.00;99.90;;;;;;5073334;28;20040;-85
2023/12/27 02:48:42;;;;;;;1764.82;999.90;;;2.10;99.90;;;;;;5056624;28;20051;-86
2023/12/27 02:51:08;;;;;;;1787.97;999.90;;;0.90;99.90;;;;;;5042954;28;20044;-86
2023/12/27 02:53:33;;;;;;;1807.22;999.90;;;1.00;99.90;;;;;;5043042;28;20044;-86
2023/12/27 02:55:59;;;;;;;1848.60;999.90;;;1.00;99.90;;;;;;5061879;28;20043;-85
2023/12/27 02:58:24;;;;;;;1793.53;999.90;;;0.90;99.90;;;;;;5043546;28;20108;-85
2023/12/27 03:00:50;;;;;;;1745.28;999.90;;;0.90;99.90;;;;;;5061766;28;20041;-85
2023/12/27 03:03:16;;;;;;;1925.15;999.90;;;0.90;99.90;;;;;;5041834;28;20228;-85
2023/12/27 03:05:41;;;;;;;1895.60;999.90;;;0.90;99.90;;;;;;5044865;28;20040;-85
2023/12/27 03:08:07;;;;;;;1858.25;999.90;;;0.90;99.90;;;;;;5042904;28;20509;-86
2023/12/27 03:10:32;;;;;;;1909.38;999.90;;;1.00;99.90;;;;;;5041019;28;20029;-86
2023/12/27 03:12:58;;;;;;;1848.50;999.90;;;1.00;99.90;;;;;;5041727;28;20118;-86
2023/12/27 03:15:24;;;;;;;1863.40;999.90;;;1.00;99.90;;;;;;5043619;28;20033;-85
2023/12/27 03:17:49;;;;;;;1988.53;999.90;;;1.00;99.90;;;;;;5039588;28;20037;-85
2023/12/27 03:20:15;;;;;;;1999.90;999.90;;;1.00;99.90;;;;;;5045155;28;20477;-85
2023/12/27 03:22:41;;;;;;;1999.90;999.90;;;1.10;99.90;;;;;;5039697;28;20029;-85
2023/12/27 03:25:06;;;;;;;1968.72;999.90;;;1.10;99.90;;;;;;5043200;28;20809;-86
2023/12/27 03:27:32;;;;;;;1999.90;999.90;;;1.10;99.90;;;;;;5038392;28;20131;-86
2023/12/27 03:29:57;;;;;;;1999.90;999.90;;;1.20;99.90;;;;;;5045892;28;20037;-86
2023/12/27 03:32:24;;;;;;;1999.90;999.90;;;1.20;99.90;;;;;;5054875;28;20059;-86
2023/12/27 03:34:50;;;;;;;1960.22;999.90;;;1.20;99.90;;;;;;5042934;28;20421;-86
2023/12/27 03:37:16;;;;;;;1999.90;999.90;;;1.20;99.90;;;;;;5041005;28;20106;-85
2023/12/27 03:39:43;;;;;;;1999.90;999.90;;;2.60;99.90;;;;;;5059274;28;20565;-85
2023/12/27 03:42:09;;;;;;;1999.90;999.90;;;2.30;99.90;;;;;;5038215;28;20135;-85
2023/12/27 03:44:35;;;;;;;1999.90;999.90;;;2.30;99.90;;;;;;5041285;28;20040;-85
2023/12/27 03:47:01;;;;;;;1999.90;999.90;;;1.30;99.90;;;;;;5042378;28;20047;-85
2023/12/27 03:49:27;;;;;;;1999.90;999.90;;;1.20;99.90;;;;;;5041872;28;20072;-85
2023/12/27 03:51:52;;;;;;;1999.90;999.90;;;1.20;99.90;;;;;;5038733;28;20029;-85
2023/12/27 03:54:18;;;;;;;1999.90;999.90;;;1.20;99.90;;;;;;5036408;28;20044;-85
2023/12/27 03:56:44;;;;;;;1999.90;999.90;;;1.20;99.90;;;;;;5054367;28;20039;-85
2023/12/27 03:59:10;;;;;;;1999.90;999.90;;;1.20;99.90;;;;;;5040249;28;20037;-85
2023/12/27 04:01:36;;;;;;;1999.90;999.90;;;1.20;99.90;;;;;;5041690;28;20155;-85
2023/12/27 04:04:02;;;;;;;1999.90;999.90;;;1.20;99.90;;;;;;5041723;28;20177;-85
2023/12/27 04:06:28;;;;;;;1999.90;999.90;;;1.20;99.90;;;;;;5047844;28;20044;-85
2023/12/27 04:08:54;;;;;;;1999.78;999.90;;;1.20;99.90;;;;;;5051607;28;20268;-85
2023/12/27 04:11:19;;;;;;;1999.90;999.90;;;1.20;99.90;;;;;;5050510;28;20044;-85
2023/12/27 04:13:45;;;;;;;1999.90;999.90;;;1.20;99.90;;;;;;5050948;28;20039;-85
2023/12/27 04:16:11;;;;;;;1998.60;999.90;;;1.20;99.90;;;;;;5051128;28;20075;-85
2023/12/27 04:18:36;;;;;;;1999.90;999.90;;;1.20;99.90;;;;;;5066983;28;20659;-85
2023/12/27 04:21:02;;;;;;;1999.90;999.90;;;1.20;99.90;;;;;;5050860;28;20029;-85
2023/12/27 04:23:28;;;;;;;1962.50;999.90;;;1.20;99.90;;;;;;5070321;28;20094;-85
2023/12/27 04:25:54;;;;;;;1999.90;999.90;;;1.20;99.90;;;;;;5054345;28;20098;-86
2023/12/27 04:28:20;;;;;;;1999.90;999.90;;;1.20;99.90;;;;;;5027361;28;1230139;-86
2023/12/27 04:30:45;;;;;;;1999.90;999.90;;;1.20;99.90;;;;;;5055024;28;20040;-85
2023/12/27 04:33:11;;;;;;;1999.90;999.90;;;1.20;99.90;;;;;;5055197;28;20036;-85
2023/12/27 04:35:36;;;;;;;1999.90;999.90;;;1.20;99.90;;;;;;5054832;28;20037;-85
2023/12/27 04:38:02;;;;;;;1999.90;999.90;;;1.30;99.90;;;;;;5051733;28;20124;-85
2023/12/27 04:40:28;;;;;;;1999.90;999.90;;;1.30;99.90;;;;;;5051510;28;20048;-85
2023/12/27 04:42:54;;;;;;;1999.90;999.90;;;1.30;99.90;;;;;;5051611;28;20036;-85
2023/12/27 04:45:19;;;;;;;1999.90;999.90;;;2.30;99.90;;;;;;5050782;28;20472;-85
2023/12/27 04:47:45;;;;;;;1999.90;999.90;;;1.40;99.90;;;;;;5051264;28;20028;-85
2023/12/27 04:50:11;;;;;;;1999.90;999.90;;;2.50;99.90;;;;;;5051449;28;20095;-85
2023/12/27 04:52:36;;;;;;;1999.90;999.90;;;2.70;99.90;;;;;;5051599;28;20041;-85
2023/12/27 04:55:02;;;;;;;1999.90;999.90;;;1.50;99.90;;;;;;5050277;28;20033;-85
2023/12/27 04:57:28;;;;;;;1999.90;999.90;;;1.40;99.90;;;;;;5050811;28;20051;-85
2023/12/27 04:59:53;;;;;;;1999.90;999.90;;;1.70;99.90;;;;;;5050815;28;20131;-85
2023/12/27 05:02:19;;;;;;;1999.90;999.90;;;2.50;99.90;;;;;;5057655;28;20047;-85
2023/12/27 05:04:44;;;;;;;1999.90;999.90;;;1.50;99.90;;;;;;5052419;28;20074;-85
2023/12/27 05:07:10;;;;;;;1999.90;999.90;;;1.50;99.90;;;;;;5051271;28;20072;-85
2023/12/27 05:09:35;;;;;;;1999.90;999.90;;;2.60;99.90;;;;;;5066637;28;20599;-85
2023/12/27 05:12:02;;;;;;;1999.90;999.90;;;2.00;99.90;;;;;;5057622;28;20040;-85
2023/12/27 05:14:28;;;;;;;1999.90;999.90;;;1.50;99.90;;;;;;5069427;28;20120;-85
2023/12/27 05:16:55;;;;;;;1999.90;999.90;;;1.50;99.90;;;;;;5053876;28;20064;-85
2023/12/27 05:19:21;;;;;;;1999.90;999.90;;;1.50;99.90;;;;;;5053134;28;20032;-85
2023/12/27 05:21:47;;;;;;;1999.90;999.90;;;1.50;99.90;;;;;;5053724;28;20636;-86
2023/12/27 05:24:13;;;;;;;1999.90;999.90;;;1.60;99.90;;;;;;5054422;28;20036;-86
2023/12/27 05:26:38;;;;;;;1999.90;999.90;;;1.60;99.90;;;;;;5051105;28;20051;-85
2023/12/27 05:29:04;;;;;;;1999.90;999.90;;;1.60;99.90;;;;;;5068639;28;20070;-86
2023/12/27 05:31:30;;;;;;;1999.90;999.90;;;1.60;99.90;;;;;;5050075;28;20063;-85
2023/12/27 05:33:55;;;;;;;1999.90;999.90;;;1.60;99.90;;;;;;5050377;28;20085;-85
2023/12/27 05:36:21;;;;;;;1999.90;999.90;;;1.70;99.90;;;;;;5050677;28;20044;-85
2023/12/27 05:38:47;;;;;;;1999.90;999.90;;;2.20;99.90;;;;;;5066432;28;20032;-85
2023/12/27 05:41:13;;;;;;;1999.90;999.90;;;1.70;99.90;;;;;;5068787;28;20067;-85
2023/12/27 05:43:38;;;;;;;1999.90;999.90;;;1.80;99.90;;;;;;5066362;28;20488;-85
2023/12/27 05:46:04;;;;;;;1999.90;999.90;;;1.80;99.90;;;;;;5072540;28;20032;-85
2023/12/27 05:48:30;;;;;;;1999.90;999.90;;;1.90;99.90;;;;;;5049789;28;20558;-85
2023/12/27 05:50:56;;;;;;;1999.90;999.90;;;1.90;99.90;;;;;;5052958;28;20511;-85
2023/12/27 05:53:22;;;;;;;1999.90;999.90;;;1.90;99.90;;;;;;5053432;28;20059;-85
2023/12/27 05:55:48;;;;;;;1999.90;999.90;;;1.90;99.90;;;;;;5054675;28;20115;-86
2023/12/27 05:58:13;;;;;;;1999.90;999.90;;;2.00;99.90;;;;;;5053886;28;20035;-85
2023/12/27 06:00:39;;;;;;;1999.90;999.90;;;2.00;99.90;;;;;;5053090;28;20105;-86
2023/12/27 06:03:05;;;;;;;1999.90;999.90;;;2.00;99.90;;;;;;5052895;28;20044;-85
2023/12/27 06:05:30;;;;;;;1999.90;999.90;;;2.00;99.90;;;;;;5050989;28;20044;-85
2023/12/27 06:07:56;;;;;;;1999.90;999.90;;;2.00;99.90;;;;;;5050206;28;20043;-85
2023/12/27 06:10:21;;;;;;;1999.90;999.90;;;2.00;99.90;;;;;;5049589;28;20464;-86
2023/12/27 06:12:47;;;;;;;1999.90;999.90;;;2.00;99.90;;;;;;5049962;28;20122;-86
2023/12/27 06:15:13;;;;;;;1999.90;999.90;;;2.10;99.90;;;;;;5049415;28;20028;-86
2023/12/27 06:17:39;;;;;;;1999.90;999.90;;;2.20;99.90;;;;;;5049080;28;20385;-86
2023/12/27 06:20:06;;;;;;;1999.90;999.90;;;2.10;99.90;;;;;;5049761;28;20768;-86
2023/12/27 06:22:32;;;;;;;1999.90;999.90;;;2.10;99.90;;;;;;5049698;28;20040;-86
2023/12/27 06:24:58;;;;;;;1999.90;999.90;;;2.10;99.90;;;;;;5049634;28;20396;-85
2023/12/27 06:27:23;;;;;;;1999.90;999.90;;;2.10;99.90;;;;;;5064992;28;20049;-86
2023/12/27 06:29:49;;;;;;;1999.90;999.90;;;2.10;99.90;;;;;;5050124;28;20037;-86
2023/12/27 06:32:16;;;;;;;1999.90;999.90;;;2.20;99.90;;;;;;5049865;28;20036;-86
2023/12/27 06:34:41;;;;;;;1999.90;999.90;;;2.20;99.90;;;;;;5065146;28;20036;-86
2023/12/27 06:37:07;;;;;;;1999.90;999.90;;;2.20;99.90;;;;;;5048130;28;20037;-86
2023/12/27 06:39:33;;;;;;;1999.90;999.90;;;2.20;99.90;;;;;;5048994;28;20043;-86
2023/12/27 06:41:58;;;;;;;1999.90;999.90;;;2.20;99.90;;;;;;5048895;28;20119;-86
2023/12/27 06:44:24;;;;;;;1999.90;999.90;;;2.20;99.90;;;;;;5065523;28;20032;-86
2023/12/27 06:46:50;;;;;;;1999.90;999.90;;;2.70;99.90;;;;;;5048032;28;20040;-86
2023/12/27 06:49:15;;;;;;;1999.90;999.90;;;2.20;99.90;;;;;;5057806;28;20037;-86
2023/12/27 06:51:41;;;;;;;1999.90;999.90;;;2.20;99.90;;;;;;5049855;28;20109;-86
2023/12/27 06:54:06;;;;;;;1999.90;999.90;;;2.30;99.90;;;;;;5049758;28;20052;-86
2023/12/27 06:56:32;;;;;;;1999.90;999.90;;;2.30;99.90;;;;;;5049359;28;20037;-86
2023/12/27 06:58:58;;;;;;;1999.90;999.90;;;2.30;99.90;;;;;;5062595;28;20060;-85
2023/12/27 07:01:24;;;;;;;1999.90;999.90;;;2.30;99.90;;;;;;5064172;28;20442;-85
2023/12/27 07:03:50;;;;;;;1999.90;999.90;;;2.40;99.90;;;;;;5064873;28;20028;-86
2023/12/27 07:06:17;;;;;;;1999.90;999.90;;;1.60;99.90;;;;;;5064120;28;20066;-85
2023/12/27 07:08:43;;;;;;;1999.90;999.90;;;3.30;99.90;;;;;;5065260;28;20037;-85
2023/12/27 07:11:15;;;;;;;1999.90;999.90;;;3.30;99.90;;;;;;5064524;28;20094;-85
2023/12/27 07:13:42;;;;;;;1999.90;999.90;;;2.40;99.90;;;;;;5064887;28;20072;-86
2023/12/27 07:16:07;;;;;;;1999.90;999.90;;;2.50;99.90;;;;;;5062806;28;20045;-86
2023/12/27 07:18:33;;;;;;;1999.90;999.90;;;2.60;99.90;;;;;;5075241;28;20082;-86
2023/12/27 07:20:59;;;;;;;1999.90;999.90;;;2.60;99.90;;;;;;5066167;28;20094;-85
2023/12/27 07:23:25;;;;;;;1999.90;999.90;;;2.70;99.90;;;;;;5065605;28;20044;-86
2023/12/27 07:25:50;;;;;;;1999.90;999.90;;;3.40;99.90;;;;;;5065353;28;20052;-85
2023/12/27 07:28:16;;;;;;;1999.90;999.90;;;2.90;99.90;;;;;;5077162;28;20060;-85
2023/12/27 07:30:43;;;;;;;1999.90;999.90;;;3.70;99.90;;;;;;5074780;28;20070;-86
2023/12/27 07:33:08;;;;;;;1999.90;999.90;;;2.90;99.90;;;;;;5066680;28;20032;-86
2023/12/27 07:35:34;;;;;;;1999.90;999.90;;;2.40;99.90;;;;;;5078776;28;20475;-86
2023/12/27 07:38:00;;;;;;;1999.90;999.90;;;4.30;99.90;;;;;;5068187;28;20029;-86
2023/12/27 07:40:27;;;;;;;1999.90;999.90;;;3.50;99.90;;;;;;5068566;28;20086;-86
2023/12/27 07:42:53;;;;;;;1999.90;999.90;;;4.20;99.90;;;;;;5084098;28;20052;-86
2023/12/27 07:45:21;;;;;;;1999.90;999.90;;;3.60;99.90;;;;;;5066473;28;20038;-86
2023/12/27 07:47:47;;;;;;;1999.90;999.90;;;3.30;99.90;;;;;;5077005;28;20044;-86
2023/12/27 07:50:13;;;;;;;1999.90;999.90;;;3.90;99.90;;;;;;5067237;28;20059;-86
2023/12/27 07:52:39;;;;;;;1999.90;999.90;;;3.40;99.90;;;;;;5052022;28;20059;-88
2023/12/27 07:55:05;;;;;;;1999.90;999.90;;;4.40;99.90;;;;;;5053653;28;20242;-87
2023/12/27 07:57:34;;;;;;;1999.90;999.90;;;3.40;99.90;;;;;;5052655;28;20036;-87
2023/12/27 07:59:59;;;;;;;1999.90;999.90;;;4.30;99.90;;;;;;5085818;28;20083;-88
2023/12/27 08:02:25;;;;;;;1999.90;999.90;;;4.20;99.90;;;;;;5068563;28;20051;-88
2023/12/27 08:04:51;;;;;;;1999.90;999.90;;;4.30;99.90;;;;;;5068698;28;20467;-88
2023/12/27 08:07:16;;;;;;;1999.90;999.90;;;4.50;99.90;;;;;;5069348;28;20029;-88
2023/12/27 08:09:43;;;;;;;1999.90;999.90;;;2.40;99.90;;;;;;5069216;28;20063;-87
2023/12/27 08:12:08;;;;;;;1999.90;999.90;;;4.60;99.90;;;;;;5067990;28;20052;-88
2023/12/27 08:14:34;;;;;;;1999.90;999.90;;;4.00;99.90;;;;;;5068086;28;20051;-87
2023/12/27 08:17:00;;;;;;;1999.90;999.90;;;3.50;99.90;;;;;;5068806;28;20283;-87
2023/12/27 08:19:25;;;;;;;1999.90;999.90;;;4.60;99.90;;;;;;5068632;28;20049;-88
2023/12/27 08:21:51;;;;;;;1999.90;999.90;;;4.80;99.90;;;;;;5084861;28;20048;-88
2023/12/27 08:24:17;;;;;;;1999.90;999.90;;;3.60;99.90;;;;;;5068076;28;20044;-87
2023/12/27 08:26:43;;;;;;;1999.90;999.90;;;3.60;99.90;;;;;;5050097;28;20053;-86
2023/12/27 08:29:08;;;;;;;1999.90;999.90;;;4.70;99.90;;;;;;5066185;28;20044;-88
2023/12/27 08:31:34;;;;;;;1999.90;999.90;;;4.90;99.90;;;;;;5068632;28;20050;-88
2023/12/27 08:34:02;;;;;;;1999.90;999.90;;;5.00;99.90;;;;;;5069391;28;20032;-88
2023/12/27 08:36:29;;;;;;;1999.90;999.90;;;5.00;99.90;;;;;;5069182;28;20042;-89
2023/12/27 08:38:55;;;;;;;1999.90;999.90;;;4.00;99.90;;;;;;5078629;28;20252;-89
2023/12/27 08:41:24;;;;;;;1999.90;999.90;;;3.80;99.90;;;;;;5069518;28;20113;-88
2023/12/27 08:43:53;;;;;;;1999.90;999.90;;;3.80;99.90;;;;;;5085251;28;20176;-88
2023/12/27 08:46:22;;;;;;;1999.90;999.90;;;3.80;99.90;;;;;;5077974;28;21172;-88
2023/12/27 08:48:48;;;;;;;1999.90;999.90;;;3.90;99.90;;;;;;5069715;28;20042;-89
2023/12/27 08:51:14;;;;;;;1999.90;999.90;;;4.70;99.90;;;;;;5068653;28;20688;-88
2023/12/27 08:53:40;;;;;;;1999.90;999.90;;;3.90;99.90;;;;;;5069525;28;20070;-88
2023/12/27 08:56:07;;;;;;;1999.90;999.90;;;3.80;99.90;;;;;;5068581;28;20051;-88
2023/12/27 08:58:33;;;;;;;1999.90;999.90;;;4.80;99.90;;;;;;5069244;28;20036;-88
2023/12/27 09:00:58;;;;;;;1999.90;999.90;;;4.50;99.90;;;;;;5087462;28;20092;-89
2023/12/27 09:03:24;;;;;;;1989.70;999.90;;;3.90;99.90;;;;;;5068867;28;20028;-89
2023/12/27 09:05:51;;;;;;;1999.90;999.90;;;5.20;99.90;;;;;;5068841;28;20048;-89
2023/12/27 09:08:17;;;;;;;1999.90;999.90;;;3.90;99.90;;;;;;5086156;28;20048;-89
2023/12/27 09:10:42;;;;;;;1999.90;999.90;;;3.90;99.90;;;;;;5068051;28;20104;-88
2023/12/27 09:13:11;;;;;;;1999.90;999.90;;;4.30;99.90;;;;;;5067841;28;21414;-88
2023/12/27 09:15:37;;;;;;;1999.90;999.90;;;3.90;99.90;;;;;;5085649;28;20562;-88
2023/12/27 09:18:03;;;;;;;1999.90;999.90;;;4.50;99.90;;;;;;5076453;28;20024;-88
2023/12/27 09:20:29;;;;;;;1999.90;999.90;;;4.00;99.90;;;;;;5068131;28;20062;-89
2023/12/27 09:22:55;;;;;;;1999.90;999.90;;;4.00;99.90;;;;;;5051072;28;20067;-89
2023/12/27 09:25:21;;;;;;;1999.90;999.90;;;4.40;99.90;;;;;;5068682;28;20048;-89
2023/12/27 09:27:47;;;;;;;1999.90;999.90;;;4.10;99.90;;;;;;5069611;28;20048;-88
2023/12/27 09:30:13;;;;;;;1999.90;999.90;;;3.80;99.90;;;;;;5069542;28;20040;-89
2023/12/27 09:32:40;;;;;;;1999.90;999.90;;;4.70;99.90;;;;;;5069072;28;20044;-89
2023/12/27 09:35:06;;;;;;;1999.90;999.90;;;5.50;99.90;;;;;;5075980;28;20100;-88
2023/12/27 09:37:32;;;;;;;1999.90;999.90;;;4.00;99.90;;;;;;5070820;28;20032;-89
2023/12/27 09:39:57;;;;;;;1999.90;999.90;;;5.20;99.90;;;;;;5071031;28;20043;-89
2023/12/27 09:42:23;;;;;;;1999.90;999.90;;;5.00;99.90;;;;;;5070773;28;20451;-89
2023/12/27 09:44:52;;;;;;;1999.90;999.90;;;4.30;99.90;;;;;;5070759;28;20044;-89
2023/12/27 09:47:18;;;;;;;1999.90;999.90;;;4.90;99.90;;;;;;5070513;28;20040;-89
2023/12/27 09:49:44;;;;;;;1999.90;999.90;;;5.50;99.90;;;;;;5070483;28;20049;-89
2023/12/27 09:52:12;;;;;;;1999.90;999.90;;;5.40;99.90;;;;;;5068832;28;20100;-89
2023/12/27 09:54:38;;;;;;;1999.90;999.90;;;5.60;99.90;;;;;;5070391;28;20464;-89
2023/12/27 09:57:04;;;;;;;1999.90;999.90;;;5.10;99.90;;;;;;5070680;28;20039;-89
2023/12/27 09:59:41;;;;;;;1999.90;999.90;;;4.50;99.90;;;;;;5070173;28;20036;-89
2023/12/27 10:02:20;;;;;;;1999.90;999.90;;;4.50;99.90;;;;;;5047117;28;20041;-89
2023/12/27 10:05:12;;;;;;;1999.90;999.90;;;3.70;99.90;;;;;;5072081;28;20037;-89
2023/12/27 10:07:40;;;;;;;1999.90;999.90;;;4.60;99.90;;;;;;5073106;28;20315;-89
2023/12/27 10:10:09;;;;;;;1999.90;999.90;;;4.70;99.90;;;;;;5085624;28;20051;-88
2023/12/27 10:12:35;;;;;;;1999.90;999.90;;;4.60;99.90;;;;;;5069910;28;20045;-88
2023/12/27 10:15:02;;;;;;;1999.90;999.90;;;4.60;99.90;;;;;;5070813;28;20064;-88
2023/12/27 10:17:27;;;;;;;1999.90;999.90;;;4.70;99.90;;;;;;5069674;28;20059;-88
2023/12/27 10:19:53;;;;;;;1999.90;999.90;;;5.50;99.90;;;;;;5086261;28;20044;-88
2023/12/27 10:22:19;;;;;;;1999.90;999.90;;;4.70;99.90;;;;;;5069899;28;20045;-88
2023/12/27 10:24:45;;;;;;;1999.90;999.90;;;5.40;99.90;;;;;;5070153;28;20040;-89
2023/12/27 10:27:13;;;;;;;1999.90;999.90;;;5.90;99.90;;;;;;5070649;28;20136;-89
2023/12/27 10:29:44;;;;;;;1999.90;999.90;;;4.80;99.90;;;;;;5070879;28;20056;-88
2023/12/27 10:32:09;;;;;;;1999.90;999.90;;;4.30;99.90;;;;;;5070652;28;20033;-89
2023/12/27 10:34:37;;;;;;;1999.90;999.90;;;6.10;99.90;;;;;;5071275;28;20032;-89
2023/12/27 10:37:08;;;;;;;1999.90;999.90;;;5.70;99.90;;;;;;5070530;28;20531;-89
2023/12/27 10:39:33;;;;;;;1999.90;999.90;;;5.00;99.90;;;;;;5070638;28;20096;-89
2023/12/27 10:41:59;;;;;;;1999.90;999.90;;;6.20;99.90;;;;;;5070920;28;20020;-89
2023/12/27 10:44:25;;;;;;;1999.90;999.90;;;5.70;99.90;;;;;;5070260;28;20033;-89
2023/12/27 10:46:53;;;;;;;1999.90;999.90;;;5.00;99.90;;;;;;5071173;28;20036;-90
2023/12/27 10:49:22;;;;;;;1999.90;999.90;;;5.50;99.90;;;;;;5071007;28;20063;-89
2023/12/27 10:51:50;;;;;;;1999.90;999.90;;;6.20;99.90;;;;;;5071054;28;20044;-89
2023/12/27 10:54:21;;;;;;;1999.90;999.90;;;5.70;99.90;;;;;;5074372;28;20041;-89
2023/12/27 10:56:50;;;;;;;1999.90;999.90;;;5.20;99.90;;;;;;5074809;28;20124;-89
2023/12/27 10:59:16;;;;;;;1999.90;999.90;;;5.60;99.90;;;;;;5074239;28;20132;-89
2023/12/27 11:01:44;;;;;;;1999.90;999.90;;;6.30;99.90;;;;;;5091108;28;20025;-89
2023/12/27 11:04:11;;;;;;;1999.90;999.90;;;6.50;99.90;;;;;;5069419;28;20048;-89
2023/12/27 11:06:38;;;;;;;1999.90;999.90;;;5.30;99.90;;;;;;5073581;28;20040;-89
2023/12/27 11:09:09;;;;;;;1999.90;999.90;;;5.40;99.90;;;;;;5074136;28;20040;-89
2023/12/27 11:11:38;;;;;;;1999.90;999.90;;;6.20;99.90;;;;;;5073333;28;20040;-88
2023/12/27 11:14:13;;;;;;;1999.90;999.90;;;6.40;99.90;;;;;;5073746;28;20036;-89
2023/12/27 11:16:40;;;;;;;1999.90;999.90;;;5.50;99.90;;;;;;5073016;28;20105;-88
2023/12/27 11:19:07;;;;;;;1999.90;999.90;;;5.50;99.90;;;;;;5073194;28;20040;-88
2023/12/27 11:21:34;;;;;;;1999.90;999.90;;;5.50;99.90;;;;;;5090014;28;20048;-88
2023/12/27 11:24:00;;;;;;;1999.90;999.90;;;5.50;99.90;;;;;;5057065;28;20033;-89
2023/12/27 11:26:27;;;;;;;1999.90;999.90;;;6.40;99.90;;;;;;5072398;28;20420;-87
2023/12/27 11:28:53;;;;;;;1999.90;999.90;;;5.50;99.90;;;;;;5072768;28;20087;-88
2023/12/27 11:31:19;;;;;;;1999.90;999.90;;;5.40;99.90;;;;;;5072686;28;20032;-88
2023/12/27 11:33:46;;;;;;;1999.90;999.90;;;5.50;99.90;;;;;;5072660;28;20064;-88
2023/12/27 11:36:12;;;;;;;1999.90;999.90;;;5.60;99.90;;;;;;5083970;28;20036;-88
2023/12/27 11:38:39;;;;;;;1999.90;999.90;;;5.90;99.90;;;;;;5072478;28;20070;-88
2023/12/27 11:41:06;;;;;;;1999.90;999.90;;;6.50;99.90;;;;;;5072619;28;20037;-87
2023/12/27 11:44:03;;;;;;;1999.90;999.90;;;6.00;99.90;;;;;;5055460;28;20041;-88
2023/12/27 11:46:30;;;;;;;1999.90;999.90;;;5.80;99.90;;;;;;5067970;28;20513;-87
2023/12/27 11:49:00;;;;;;;1999.90;999.90;;;5.90;99.90;;;;;;5071934;28;20043;-86
2023/12/27 11:51:33;;;;;;;1999.90;999.90;;;5.60;99.90;;;;;;5068013;28;20111;-87
2023/12/27 11:54:03;;;;;;;1999.90;999.90;;;5.80;99.90;;;;;;5071089;28;20071;-86
2023/12/27 11:56:31;;;;;;;1999.90;999.90;;;5.60;99.90;;;;;;5065851;28;20036;-86
2023/12/27 11:58:58;;;;;;;1999.90;999.90;;;4.70;99.90;;;;;;5068102;28;20029;-86
2023/12/27 12:01:31;;;;;;;1999.90;999.90;;;6.60;99.90;;;;;;5071153;28;20100;-86
2023/12/27 12:04:20;;;;;;;1999.90;999.90;;;4.80;99.90;;;;;;5067421;28;20048;-86